sensor_id;sensor_type;location;lat;lon;timestamp;P1;durP1;ratioP1;P2;durP2;ratioP2
23260;SDS011;11799;47.740;-3.390;2023-03-01T00:01:02;5.63;;;4.32;;
23260;SDS011;11799;47.740;-3.390;2023-03-01T00:03:29;5.38;;;4.40;;
23260;SDS011;11799;47.740;-3.390;2023-03-01T00:05:55;5.63;;;4.55;;
23260;SDS011;11799;47.740;-3.390;2023-03-01T00:08:20;4.18;;;3.70;;
23260;SDS011;11799;47.740;-3.390;2023-03-01T00:10:46;5.00;;;4.07;;
23260;SDS011;11799;47.740;-3.390;2023-03-01T00:13:11;5.03;;;4.20;;
23260;SDS011;11799;47.740;-3.390;2023-03-01T00:15:40;5.60;;;4.60;;
23260;SDS011;11799;47.740;-3.390;2023-03-01T00:18:08;6.95;;;5.25;;
23260;SDS011;11799;47.740;-3.390;2023-03-01T00:20:34;7.50;;;5.47;;
23260;SDS011;11799;47.740;-3.390;2023-03-01T00:22:59;7.00;;;5.78;;
23260;SDS011;11799;47.740;-3.390;2023-03-01T00:25:25;8.27;;;6.65;;
23260;SDS011;11799;47.740;-3.390;2023-03-01T00:27:50;9.20;;;6.88;;
23260;SDS011;11799;47.740;-3.390;2023-03-01T00:30:16;10.77;;;6.70;;
23260;SDS011;11799;47.740;-3.390;2023-03-01T00:32:42;9.45;;;6.88;;
23260;SDS011;11799;47.740;-3.390;2023-03-01T00:35:07;8.35;;;6.47;;
23260;SDS011;11799;47.740;-3.390;2023-03-01T00:37:33;11.43;;;7.10;;
23260;SDS011;11799;47.740;-3.390;2023-03-01T00:39:58;11.77;;;7.30;;
23260;SDS011;11799;47.740;-3.390;2023-03-01T00:42:24;10.80;;;7.45;;
23260;SDS011;11799;47.740;-3.390;2023-03-01T00:44:49;12.00;;;8.35;;
23260;SDS011;11799;47.740;-3.390;2023-03-01T00:47:15;13.85;;;8.75;;
23260;SDS011;11799;47.740;-3.390;2023-03-01T00:49:41;12.85;;;8.45;;
23260;SDS011;11799;47.740;-3.390;2023-03-01T00:52:06;11.85;;;8.68;;
23260;SDS011;11799;47.740;-3.390;2023-03-01T00:54:31;13.35;;;9.00;;
23260;SDS011;11799;47.740;-3.390;2023-03-01T00:56:57;12.48;;;9.07;;
23260;SDS011;11799;47.740;-3.390;2023-03-01T00:59:23;12.65;;;9.20;;
23260;SDS011;11799;47.740;-3.390;2023-03-01T01:01:48;14.55;;;9.82;;
23260;SDS011;11799;47.740;-3.390;2023-03-01T01:04:14;16.27;;;10.00;;
23260;SDS011;11799;47.740;-3.390;2023-03-01T01:06:44;15.05;;;10.15;;
23260;SDS011;11799;47.740;-3.390;2023-03-01T01:09:12;15.23;;;9.95;;
23260;SDS011;11799;47.740;-3.390;2023-03-01T01:11:43;13.40;;;9.60;;
23260;SDS011;11799;47.740;-3.390;2023-03-01T01:14:12;14.95;;;10.13;;
23260;SDS011;11799;47.740;-3.390;2023-03-01T01:16:38;13.35;;;9.32;;
23260;SDS011;11799;47.740;-3.390;2023-03-01T01:19:04;14.55;;;9.48;;
23260;SDS011;11799;47.740;-3.390;2023-03-01T01:21:30;14.52;;;10.05;;
23260;SDS011;11799;47.740;-3.390;2023-03-01T01:23:56;14.07;;;10.32;;
23260;SDS011;11799;47.740;-3.390;2023-03-01T01:26:27;14.85;;;10.27;;
23260;SDS011;11799;47.740;-3.390;2023-03-01T01:28:54;13.23;;;9.60;;
23260;SDS011;11799;47.740;-3.390;2023-03-01T01:31:20;16.15;;;10.48;;
23260;SDS011;11799;47.740;-3.390;2023-03-01T01:33:49;14.48;;;9.63;;
23260;SDS011;11799;47.740;-3.390;2023-03-01T01:36:15;14.30;;;10.40;;
23260;SDS011;11799;47.740;-3.390;2023-03-01T01:38:41;15.90;;;10.30;;
23260;SDS011;11799;47.740;-3.390;2023-03-01T01:41:08;15.60;;;11.45;;
23260;SDS011;11799;47.740;-3.390;2023-03-01T01:43:38;15.88;;;10.85;;
23260;SDS011;11799;47.740;-3.390;2023-03-01T01:46:13;19.35;;;11.38;;
23260;SDS011;11799;47.740;-3.390;2023-03-01T01:51:29;17.73;;;11.07;;
23260;SDS011;11799;47.740;-3.390;2023-03-01T01:54:05;17.13;;;11.23;;
23260;SDS011;11799;47.740;-3.390;2023-03-01T01:56:35;18.23;;;12.15;;
23260;SDS011;11799;47.740;-3.390;2023-03-01T01:59:05;20.15;;;12.88;;
23260;SDS011;11799;47.740;-3.390;2023-03-01T02:01:31;16.77;;;11.55;;
23260;SDS011;11799;47.740;-3.390;2023-03-01T02:03:57;20.33;;;12.80;;
23260;SDS011;11799;47.740;-3.390;2023-03-01T02:06:44;22.23;;;13.00;;
23260;SDS011;11799;47.740;-3.390;2023-03-01T02:09:16;19.38;;;12.35;;
23260;SDS011;11799;47.740;-3.390;2023-03-01T02:11:43;18.98;;;12.05;;
23260;SDS011;11799;47.740;-3.390;2023-03-01T02:14:09;20.52;;;13.02;;
23260;SDS011;11799;47.740;-3.390;2023-03-01T02:16:35;20.13;;;12.48;;
23260;SDS011;11799;47.740;-3.390;2023-03-01T02:19:01;18.08;;;12.70;;
23260;SDS011;11799;47.740;-3.390;2023-03-01T02:24:10;23.02;;;13.13;;
23260;SDS011;11799;47.740;-3.390;2023-03-01T02:26:46;22.08;;;13.90;;
23260;SDS011;11799;47.740;-3.390;2023-03-01T02:29:15;21.90;;;13.48;;
23260;SDS011;11799;47.740;-3.390;2023-03-01T02:31:41;19.10;;;12.75;;
23260;SDS011;11799;47.740;-3.390;2023-03-01T02:34:06;22.92;;;13.75;;
23260;SDS011;11799;47.740;-3.390;2023-03-01T02:36:57;21.38;;;14.43;;
23260;SDS011;11799;47.740;-3.390;2023-03-01T02:39:40;23.65;;;13.82;;
23260;SDS011;11799;47.740;-3.390;2023-03-01T02:42:14;20.70;;;13.05;;
23260;SDS011;11799;47.740;-3.390;2023-03-01T02:44:45;19.63;;;13.13;;
23260;SDS011;11799;47.740;-3.390;2023-03-01T02:47:10;24.67;;;14.65;;
23260;SDS011;11799;47.740;-3.390;2023-03-01T02:49:36;22.23;;;13.52;;
23260;SDS011;11799;47.740;-3.390;2023-03-01T02:57:20;21.55;;;13.65;;
23260;SDS011;11799;47.740;-3.390;2023-03-01T02:59:49;16.90;;;11.03;;
23260;SDS011;11799;47.740;-3.390;2023-03-01T03:02:20;21.67;;;13.82;;
23260;SDS011;11799;47.740;-3.390;2023-03-01T03:05:13;25.15;;;14.30;;
23260;SDS011;11799;47.740;-3.390;2023-03-01T03:07:41;22.60;;;14.32;;
23260;SDS011;11799;47.740;-3.390;2023-03-01T03:10:14;22.05;;;15.30;;
23260;SDS011;11799;47.740;-3.390;2023-03-01T03:12:48;22.60;;;14.77;;
23260;SDS011;11799;47.740;-3.390;2023-03-01T03:15:18;20.85;;;14.07;;
23260;SDS011;11799;47.740;-3.390;2023-03-01T03:17:45;24.75;;;14.80;;
23260;SDS011;11799;47.740;-3.390;2023-03-01T03:20:12;24.50;;;15.20;;
23260;SDS011;11799;47.740;-3.390;2023-03-01T03:22:47;23.02;;;15.27;;
23260;SDS011;11799;47.740;-3.390;2023-03-01T03:25:15;23.42;;;14.70;;
23260;SDS011;11799;47.740;-3.390;2023-03-01T03:27:42;22.05;;;14.88;;
23260;SDS011;11799;47.740;-3.390;2023-03-01T03:30:10;24.25;;;14.65;;
23260;SDS011;11799;47.740;-3.390;2023-03-01T03:32:39;25.30;;;15.52;;
23260;SDS011;11799;47.740;-3.390;2023-03-01T03:35:06;24.08;;;14.55;;
23260;SDS011;11799;47.740;-3.390;2023-03-01T03:37:39;25.40;;;15.40;;
23260;SDS011;11799;47.740;-3.390;2023-03-01T03:40:24;22.70;;;14.00;;
23260;SDS011;11799;47.740;-3.390;2023-03-01T03:42:50;25.77;;;15.88;;
23260;SDS011;11799;47.740;-3.390;2023-03-01T03:45:16;25.08;;;15.95;;
23260;SDS011;11799;47.740;-3.390;2023-03-01T03:47:42;26.95;;;16.55;;
23260;SDS011;11799;47.740;-3.390;2023-03-01T03:50:13;24.10;;;15.57;;
23260;SDS011;11799;47.740;-3.390;2023-03-01T03:52:40;24.92;;;16.00;;
23260;SDS011;11799;47.740;-3.390;2023-03-01T03:55:06;26.30;;;16.17;;
23260;SDS011;11799;47.740;-3.390;2023-03-01T03:57:40;26.08;;;16.48;;
23260;SDS011;11799;47.740;-3.390;2023-03-01T04:00:07;27.58;;;16.38;;
23260;SDS011;11799;47.740;-3.390;2023-03-01T04:02:44;28.90;;;16.40;;
23260;SDS011;11799;47.740;-3.390;2023-03-01T04:05:11;29.85;;;16.42;;
23260;SDS011;11799;47.740;-3.390;2023-03-01T04:07:38;26.10;;;16.17;;
23260;SDS011;11799;47.740;-3.390;2023-03-01T04:10:04;24.97;;;15.77;;
23260;SDS011;11799;47.740;-3.390;2023-03-01T04:12:32;26.55;;;16.00;;
23260;SDS011;11799;47.740;-3.390;2023-03-01T04:17:38;26.10;;;14.90;;
23260;SDS011;11799;47.740;-3.390;2023-03-01T04:20:04;29.13;;;16.37;;
23260;SDS011;11799;47.740;-3.390;2023-03-01T04:22:31;28.15;;;15.93;;
23260;SDS011;11799;47.740;-3.390;2023-03-01T04:24:58;27.47;;;16.17;;
23260;SDS011;11799;47.740;-3.390;2023-03-01T04:27:27;28.27;;;16.80;;
23260;SDS011;11799;47.740;-3.390;2023-03-01T04:29:52;26.77;;;16.92;;
23260;SDS011;11799;47.740;-3.390;2023-03-01T04:32:18;29.23;;;17.27;;
23260;SDS011;11799;47.740;-3.390;2023-03-01T04:34:43;27.05;;;17.15;;
23260;SDS011;11799;47.740;-3.390;2023-03-01T04:37:09;26.45;;;15.85;;
23260;SDS011;11799;47.740;-3.390;2023-03-01T04:39:34;26.73;;;16.27;;
23260;SDS011;11799;47.740;-3.390;2023-03-01T04:42:10;27.17;;;16.10;;
23260;SDS011;11799;47.740;-3.390;2023-03-01T04:44:42;26.70;;;15.67;;
23260;SDS011;11799;47.740;-3.390;2023-03-01T04:47:08;29.20;;;17.35;;
23260;SDS011;11799;47.740;-3.390;2023-03-01T04:49:34;27.45;;;15.63;;
23260;SDS011;11799;47.740;-3.390;2023-03-01T04:52:00;29.95;;;16.90;;
23260;SDS011;11799;47.740;-3.390;2023-03-01T04:54:30;27.55;;;17.13;;
23260;SDS011;11799;47.740;-3.390;2023-03-01T04:56:57;25.37;;;15.80;;
23260;SDS011;11799;47.740;-3.390;2023-03-01T04:59:24;28.00;;;16.70;;
23260;SDS011;11799;47.740;-3.390;2023-03-01T05:01:50;27.03;;;16.77;;
23260;SDS011;11799;47.740;-3.390;2023-03-01T05:04:16;29.30;;;16.53;;
23260;SDS011;11799;47.740;-3.390;2023-03-01T05:06:42;27.60;;;16.85;;
23260;SDS011;11799;47.740;-3.390;2023-03-01T05:09:07;28.33;;;16.80;;
23260;SDS011;11799;47.740;-3.390;2023-03-01T05:11:33;28.00;;;15.90;;
23260;SDS011;11799;47.740;-3.390;2023-03-01T05:14:09;30.67;;;16.70;;
23260;SDS011;11799;47.740;-3.390;2023-03-01T05:16:35;30.20;;;17.17;;
23260;SDS011;11799;47.740;-3.390;2023-03-01T05:19:02;31.83;;;17.93;;
23260;SDS011;11799;47.740;-3.390;2023-03-01T05:21:39;29.03;;;16.83;;
23260;SDS011;11799;47.740;-3.390;2023-03-01T05:24:25;26.42;;;16.45;;
23260;SDS011;11799;47.740;-3.390;2023-03-01T05:26:50;26.80;;;16.07;;
23260;SDS011;11799;47.740;-3.390;2023-03-01T05:29:19;29.70;;;17.23;;
23260;SDS011;11799;47.740;-3.390;2023-03-01T05:31:59;26.57;;;16.43;;
23260;SDS011;11799;47.740;-3.390;2023-03-01T05:34:30;27.90;;;16.60;;
23260;SDS011;11799;47.740;-3.390;2023-03-01T05:36:58;27.17;;;17.00;;
23260;SDS011;11799;47.740;-3.390;2023-03-01T05:39:24;33.83;;;16.53;;
23260;SDS011;11799;47.740;-3.390;2023-03-01T05:41:55;24.77;;;14.87;;
23260;SDS011;11799;47.740;-3.390;2023-03-01T05:44:22;28.67;;;16.93;;
23260;SDS011;11799;47.740;-3.390;2023-03-01T05:46:48;27.57;;;16.17;;
23260;SDS011;11799;47.740;-3.390;2023-03-01T05:49:15;28.03;;;15.57;;
23260;SDS011;11799;47.740;-3.390;2023-03-01T05:51:41;23.23;;;15.17;;
23260;SDS011;11799;47.740;-3.390;2023-03-01T05:54:08;25.13;;;15.43;;
23260;SDS011;11799;47.740;-3.390;2023-03-01T05:56:34;27.73;;;16.23;;
23260;SDS011;11799;47.740;-3.390;2023-03-01T05:59:02;26.57;;;15.80;;
23260;SDS011;11799;47.740;-3.390;2023-03-01T06:01:30;24.43;;;14.80;;
23260;SDS011;11799;47.740;-3.390;2023-03-01T06:03:56;28.80;;;16.10;;
23260;SDS011;11799;47.740;-3.390;2023-03-01T06:06:22;26.13;;;15.97;;
23260;SDS011;11799;47.740;-3.390;2023-03-01T06:08:49;29.60;;;16.27;;
23260;SDS011;11799;47.740;-3.390;2023-03-01T06:11:15;24.50;;;15.17;;
23260;SDS011;11799;47.740;-3.390;2023-03-01T06:13:41;25.73;;;15.63;;
23260;SDS011;11799;47.740;-3.390;2023-03-01T06:16:08;23.80;;;15.27;;
23260;SDS011;11799;47.740;-3.390;2023-03-01T06:18:35;26.17;;;15.53;;
23260;SDS011;11799;47.740;-3.390;2023-03-01T06:21:01;26.00;;;15.13;;
23260;SDS011;11799;47.740;-3.390;2023-03-01T06:23:26;24.07;;;15.17;;
23260;SDS011;11799;47.740;-3.390;2023-03-01T06:25:52;23.20;;;14.70;;
23260;SDS011;11799;47.740;-3.390;2023-03-01T06:28:18;23.37;;;14.77;;
23260;SDS011;11799;47.740;-3.390;2023-03-01T06:30:43;21.47;;;13.53;;
23260;SDS011;11799;47.740;-3.390;2023-03-01T06:33:09;23.63;;;14.47;;
23260;SDS011;11799;47.740;-3.390;2023-03-01T06:35:35;23.63;;;14.83;;
23260;SDS011;11799;47.740;-3.390;2023-03-01T06:38:01;23.30;;;14.00;;
23260;SDS011;11799;47.740;-3.390;2023-03-01T06:40:28;23.40;;;13.40;;
23260;SDS011;11799;47.740;-3.390;2023-03-01T06:42:56;20.80;;;13.73;;
23260;SDS011;11799;47.740;-3.390;2023-03-01T06:45:23;22.37;;;13.93;;
23260;SDS011;11799;47.740;-3.390;2023-03-01T06:47:49;23.10;;;13.53;;
23260;SDS011;11799;47.740;-3.390;2023-03-01T06:50:15;23.43;;;13.70;;
23260;SDS011;11799;47.740;-3.390;2023-03-01T06:52:42;21.17;;;13.17;;
23260;SDS011;11799;47.740;-3.390;2023-03-01T06:55:10;23.43;;;13.80;;
23260;SDS011;11799;47.740;-3.390;2023-03-01T06:57:37;24.87;;;13.17;;
23260;SDS011;11799;47.740;-3.390;2023-03-01T07:00:04;23.63;;;14.17;;
23260;SDS011;11799;47.740;-3.390;2023-03-01T07:02:31;22.43;;;13.60;;
23260;SDS011;11799;47.740;-3.390;2023-03-01T07:04:56;22.53;;;13.60;;
23260;SDS011;11799;47.740;-3.390;2023-03-01T07:07:22;23.13;;;13.53;;
23260;SDS011;11799;47.740;-3.390;2023-03-01T07:09:48;21.17;;;13.63;;
23260;SDS011;11799;47.740;-3.390;2023-03-01T07:12:14;22.20;;;13.87;;
23260;SDS011;11799;47.740;-3.390;2023-03-01T07:14:40;23.63;;;12.70;;
23260;SDS011;11799;47.740;-3.390;2023-03-01T07:17:06;21.33;;;13.37;;
23260;SDS011;11799;47.740;-3.390;2023-03-01T07:19:31;24.03;;;13.17;;
23260;SDS011;11799;47.740;-3.390;2023-03-01T07:21:57;19.53;;;12.80;;
23260;SDS011;11799;47.740;-3.390;2023-03-01T07:24:23;22.17;;;13.07;;
23260;SDS011;11799;47.740;-3.390;2023-03-01T07:26:51;18.80;;;12.23;;
23260;SDS011;11799;47.740;-3.390;2023-03-01T07:29:17;22.70;;;13.37;;
23260;SDS011;11799;47.740;-3.390;2023-03-01T07:31:43;21.97;;;12.77;;
23260;SDS011;11799;47.740;-3.390;2023-03-01T07:34:09;22.77;;;13.23;;
23260;SDS011;11799;47.740;-3.390;2023-03-01T07:36:35;23.77;;;12.63;;
23260;SDS011;11799;47.740;-3.390;2023-03-01T07:39:01;20.00;;;13.27;;
23260;SDS011;11799;47.740;-3.390;2023-03-01T07:41:28;19.97;;;12.40;;
23260;SDS011;11799;47.740;-3.390;2023-03-01T07:43:54;19.10;;;12.00;;
23260;SDS011;11799;47.740;-3.390;2023-03-01T07:46:20;20.03;;;12.60;;
23260;SDS011;11799;47.740;-3.390;2023-03-01T07:48:45;18.58;;;11.45;;
23260;SDS011;11799;47.740;-3.390;2023-03-01T07:51:11;25.30;;;14.10;;
23260;SDS011;11799;47.740;-3.390;2023-03-01T07:53:36;32.47;;;15.77;;
23260;SDS011;11799;47.740;-3.390;2023-03-01T07:58:35;21.40;;;13.23;;
23260;SDS011;11799;47.740;-3.390;2023-03-01T08:01:03;21.57;;;11.80;;
23260;SDS011;11799;47.740;-3.390;2023-03-01T08:03:30;20.33;;;12.87;;
23260;SDS011;11799;47.740;-3.390;2023-03-01T08:05:55;20.70;;;12.63;;
23260;SDS011;11799;47.740;-3.390;2023-03-01T08:08:21;20.13;;;12.70;;
23260;SDS011;11799;47.740;-3.390;2023-03-01T08:10:46;21.63;;;12.85;;
23260;SDS011;11799;47.740;-3.390;2023-03-01T08:13:12;22.20;;;13.15;;
23260;SDS011;11799;47.740;-3.390;2023-03-01T08:15:37;21.67;;;13.18;;
23260;SDS011;11799;47.740;-3.390;2023-03-01T08:18:03;21.98;;;12.73;;
23260;SDS011;11799;47.740;-3.390;2023-03-01T08:20:29;21.38;;;11.93;;
23260;SDS011;11799;47.740;-3.390;2023-03-01T08:22:54;17.52;;;11.18;;
23260;SDS011;11799;47.740;-3.390;2023-03-01T08:25:20;19.13;;;11.90;;
23260;SDS011;11799;47.740;-3.390;2023-03-01T08:27:45;18.83;;;11.68;;
23260;SDS011;11799;47.740;-3.390;2023-03-01T08:30:11;19.30;;;11.85;;
23260;SDS011;11799;47.740;-3.390;2023-03-01T08:32:37;17.27;;;11.30;;
23260;SDS011;11799;47.740;-3.390;2023-03-01T08:35:04;17.98;;;11.73;;
23260;SDS011;11799;47.740;-3.390;2023-03-01T08:37:29;22.60;;;11.25;;
23260;SDS011;11799;47.740;-3.390;2023-03-01T08:39:58;17.52;;;10.95;;
23260;SDS011;11799;47.740;-3.390;2023-03-01T08:42:24;17.63;;;11.68;;
23260;SDS011;11799;47.740;-3.390;2023-03-01T08:44:49;17.23;;;10.85;;
23260;SDS011;11799;47.740;-3.390;2023-03-01T08:47:15;15.82;;;10.50;;
23260;SDS011;11799;47.740;-3.390;2023-03-01T08:49:40;16.05;;;10.68;;
23260;SDS011;11799;47.740;-3.390;2023-03-01T08:52:06;15.48;;;10.27;;
23260;SDS011;11799;47.740;-3.390;2023-03-01T08:54:31;16.73;;;10.60;;
23260;SDS011;11799;47.740;-3.390;2023-03-01T08:56:57;17.65;;;10.40;;
23260;SDS011;11799;47.740;-3.390;2023-03-01T08:59:24;16.98;;;9.95;;
23260;SDS011;11799;47.740;-3.390;2023-03-01T09:01:50;15.68;;;9.73;;
23260;SDS011;11799;47.740;-3.390;2023-03-01T09:04:16;19.67;;;9.82;;
23260;SDS011;11799;47.740;-3.390;2023-03-01T09:06:41;13.95;;;9.20;;
23260;SDS011;11799;47.740;-3.390;2023-03-01T09:09:10;13.15;;;8.27;;
23260;SDS011;11799;47.740;-3.390;2023-03-01T09:11:40;14.75;;;9.43;;
23260;SDS011;11799;47.740;-3.390;2023-03-01T09:14:05;13.93;;;8.73;;
23260;SDS011;11799;47.740;-3.390;2023-03-01T09:16:32;12.45;;;8.63;;
23260;SDS011;11799;47.740;-3.390;2023-03-01T09:19:01;12.32;;;8.15;;
23260;SDS011;11799;47.740;-3.390;2023-03-01T09:21:27;12.45;;;8.00;;
23260;SDS011;11799;47.740;-3.390;2023-03-01T09:23:53;12.35;;;8.35;;
23260;SDS011;11799;47.740;-3.390;2023-03-01T09:26:21;12.82;;;8.18;;
23260;SDS011;11799;47.740;-3.390;2023-03-01T09:28:48;11.52;;;7.43;;
23260;SDS011;11799;47.740;-3.390;2023-03-01T09:31:16;12.00;;;8.07;;
23260;SDS011;11799;47.740;-3.390;2023-03-01T09:33:44;12.13;;;7.35;;
23260;SDS011;11799;47.740;-3.390;2023-03-01T09:36:14;11.35;;;7.53;;
23260;SDS011;11799;47.740;-3.390;2023-03-01T09:38:42;10.88;;;7.40;;
23260;SDS011;11799;47.740;-3.390;2023-03-01T09:41:31;10.57;;;7.32;;
23260;SDS011;11799;47.740;-3.390;2023-03-01T09:44:24;12.23;;;7.45;;
23260;SDS011;11799;47.740;-3.390;2023-03-01T09:47:03;10.18;;;7.25;;
23260;SDS011;11799;47.740;-3.390;2023-03-01T09:49:30;11.02;;;7.03;;
23260;SDS011;11799;47.740;-3.390;2023-03-01T09:54:54;11.82;;;7.18;;
23260;SDS011;11799;47.740;-3.390;2023-03-01T09:57:26;9.13;;;6.10;;
23260;SDS011;11799;47.740;-3.390;2023-03-01T10:00:17;8.93;;;6.85;;
23260;SDS011;11799;47.740;-3.390;2023-03-01T10:02:55;8.77;;;6.80;;
23260;SDS011;11799;47.740;-3.390;2023-03-01T10:10:42;11.65;;;6.50;;
23260;SDS011;11799;47.740;-3.390;2023-03-01T10:13:19;8.95;;;6.53;;
23260;SDS011;11799;47.740;-3.390;2023-03-01T10:16:37;12.73;;;6.97;;
23260;SDS011;11799;47.740;-3.390;2023-03-01T10:19:02;11.77;;;7.68;;
23260;SDS011;11799;47.740;-3.390;2023-03-01T10:21:30;9.88;;;6.88;;
23260;SDS011;11799;47.740;-3.390;2023-03-01T10:24:08;10.00;;;6.88;;
23260;SDS011;11799;47.740;-3.390;2023-03-01T10:26:56;10.10;;;6.85;;
23260;SDS011;11799;47.740;-3.390;2023-03-01T10:29:30;12.55;;;7.32;;
23260;SDS011;11799;47.740;-3.390;2023-03-01T10:32:00;11.05;;;6.88;;
23260;SDS011;11799;47.740;-3.390;2023-03-01T10:34:29;11.70;;;8.05;;
23260;SDS011;11799;47.740;-3.390;2023-03-01T10:36:58;14.57;;;8.10;;
23260;SDS011;11799;47.740;-3.390;2023-03-01T10:39:34;15.02;;;8.38;;
23260;SDS011;11799;47.740;-3.390;2023-03-01T10:42:04;11.82;;;7.75;;
23260;SDS011;11799;47.740;-3.390;2023-03-01T10:44:44;11.50;;;8.20;;
23260;SDS011;11799;47.740;-3.390;2023-03-01T10:47:45;11.65;;;7.85;;
23260;SDS011;11799;47.740;-3.390;2023-03-01T10:50:04;12.85;;;8.35;;
23260;SDS011;11799;47.740;-3.390;2023-03-01T10:52:37;12.02;;;8.00;;
23260;SDS011;11799;47.740;-3.390;2023-03-01T10:57:38;13.88;;;8.73;;
23260;SDS011;11799;47.740;-3.390;2023-03-01T11:03:10;13.73;;;9.00;;
23260;SDS011;11799;47.740;-3.390;2023-03-01T11:16:25;20.70;;;9.07;;
23260;SDS011;11799;47.740;-3.390;2023-03-01T11:18:58;15.48;;;9.52;;
23260;SDS011;11799;47.740;-3.390;2023-03-01T11:21:29;18.45;;;10.38;;
23260;SDS011;11799;47.740;-3.390;2023-03-01T11:23:59;13.73;;;8.00;;
23260;SDS011;11799;47.740;-3.390;2023-03-01T11:26:27;18.40;;;11.95;;
23260;SDS011;11799;47.740;-3.390;2023-03-01T11:28:55;17.63;;;10.68;;
23260;SDS011;11799;47.740;-3.390;2023-03-01T11:31:23;18.75;;;11.85;;
23260;SDS011;11799;47.740;-3.390;2023-03-01T11:39:42;14.90;;;8.73;;
23260;SDS011;11799;47.740;-3.390;2023-03-01T11:42:00;17.42;;;11.48;;
23260;SDS011;11799;47.740;-3.390;2023-03-01T11:44:30;19.52;;;12.27;;
23260;SDS011;11799;47.740;-3.390;2023-03-01T11:58:01;21.40;;;12.82;;
23260;SDS011;11799;47.740;-3.390;2023-03-01T12:00:36;20.20;;;12.93;;
23260;SDS011;11799;47.740;-3.390;2023-03-01T12:03:16;20.02;;;12.27;;
23260;SDS011;11799;47.740;-3.390;2023-03-01T12:08:58;16.05;;;11.32;;
23260;SDS011;11799;47.740;-3.390;2023-03-01T12:20:01;19.98;;;12.65;;
23260;SDS011;11799;47.740;-3.390;2023-03-01T12:42:35;26.08;;;13.75;;
23260;SDS011;11799;47.740;-3.390;2023-03-01T12:50:54;22.77;;;13.82;;
23260;SDS011;11799;47.740;-3.390;2023-03-01T12:55:53;20.75;;;13.70;;
23260;SDS011;11799;47.740;-3.390;2023-03-01T12:58:26;21.38;;;14.52;;
23260;SDS011;11799;47.740;-3.390;2023-03-01T13:01:05;23.35;;;14.57;;
23260;SDS011;11799;47.740;-3.390;2023-03-01T13:06:04;20.50;;;13.43;;
23260;SDS011;11799;47.740;-3.390;2023-03-01T13:11:31;19.80;;;13.57;;
23260;SDS011;11799;47.740;-3.390;2023-03-01T13:17:01;20.27;;;13.35;;
23260;SDS011;11799;47.740;-3.390;2023-03-01T13:19:27;22.63;;;13.95;;
23260;SDS011;11799;47.740;-3.390;2023-03-01T13:25:01;18.45;;;13.00;;
23260;SDS011;11799;47.740;-3.390;2023-03-01T13:27:38;19.63;;;12.85;;
23260;SDS011;11799;47.740;-3.390;2023-03-01T13:30:04;20.25;;;11.98;;
23260;SDS011;11799;47.740;-3.390;2023-03-01T13:32:50;20.15;;;13.82;;
23260;SDS011;11799;47.740;-3.390;2023-03-01T13:37:43;18.73;;;13.10;;
23260;SDS011;11799;47.740;-3.390;2023-03-01T13:42:45;24.52;;;14.30;;
23260;SDS011;11799;47.740;-3.390;2023-03-01T13:45:17;18.10;;;13.30;;
23260;SDS011;11799;47.740;-3.390;2023-03-01T13:47:54;19.65;;;12.65;;
23260;SDS011;11799;47.740;-3.390;2023-03-01T13:50:33;21.02;;;13.40;;
23260;SDS011;11799;47.740;-3.390;2023-03-01T13:53:10;18.55;;;12.27;;
23260;SDS011;11799;47.740;-3.390;2023-03-01T13:55:43;18.40;;;13.77;;
23260;SDS011;11799;47.740;-3.390;2023-03-01T13:58:25;18.30;;;12.95;;
23260;SDS011;11799;47.740;-3.390;2023-03-01T14:01:01;28.55;;;13.85;;
23260;SDS011;11799;47.740;-3.390;2023-03-01T14:03:29;20.17;;;13.13;;
23260;SDS011;11799;47.740;-3.390;2023-03-01T14:06:07;21.90;;;13.25;;
23260;SDS011;11799;47.740;-3.390;2023-03-01T14:08:45;18.00;;;12.32;;
23260;SDS011;11799;47.740;-3.390;2023-03-01T14:21:27;17.55;;;12.48;;
23260;SDS011;11799;47.740;-3.390;2023-03-01T14:23:54;17.60;;;12.32;;
23260;SDS011;11799;47.740;-3.390;2023-03-01T14:26:20;18.85;;;12.55;;
23260;SDS011;11799;47.740;-3.390;2023-03-01T14:28:47;18.90;;;13.27;;
23260;SDS011;11799;47.740;-3.390;2023-03-01T14:33:58;17.33;;;12.23;;
23260;SDS011;11799;47.740;-3.390;2023-03-01T14:36:28;17.10;;;11.35;;
23260;SDS011;11799;47.740;-3.390;2023-03-01T14:38:56;16.88;;;12.27;;
23260;SDS011;11799;47.740;-3.390;2023-03-01T14:41:30;20.48;;;12.50;;
23260;SDS011;11799;47.740;-3.390;2023-03-01T14:44:04;21.67;;;12.43;;
23260;SDS011;11799;47.740;-3.390;2023-03-01T14:46:35;17.55;;;11.63;;
23260;SDS011;11799;47.740;-3.390;2023-03-01T14:51:29;18.08;;;12.30;;
23260;SDS011;11799;47.740;-3.390;2023-03-01T14:53:55;20.60;;;12.95;;
23260;SDS011;11799;47.740;-3.390;2023-03-01T14:56:21;21.10;;;12.70;;
23260;SDS011;11799;47.740;-3.390;2023-03-01T14:58:50;18.98;;;12.85;;
23260;SDS011;11799;47.740;-3.390;2023-03-01T15:01:17;20.88;;;13.07;;
23260;SDS011;11799;47.740;-3.390;2023-03-01T15:03:44;22.25;;;13.85;;
23260;SDS011;11799;47.740;-3.390;2023-03-01T15:06:14;17.80;;;13.10;;
23260;SDS011;11799;47.740;-3.390;2023-03-01T15:13:39;18.95;;;13.07;;
23260;SDS011;11799;47.740;-3.390;2023-03-01T15:18:52;22.95;;;13.82;;
23260;SDS011;11799;47.740;-3.390;2023-03-01T15:21:21;16.90;;;12.32;;
23260;SDS011;11799;47.740;-3.390;2023-03-01T15:23:53;18.85;;;13.25;;
23260;SDS011;11799;47.740;-3.390;2023-03-01T15:26:58;20.55;;;13.15;;
23260;SDS011;11799;47.740;-3.390;2023-03-01T15:29:31;19.45;;;12.77;;
23260;SDS011;11799;47.740;-3.390;2023-03-01T15:31:59;19.33;;;12.93;;
23260;SDS011;11799;47.740;-3.390;2023-03-01T15:34:38;18.88;;;12.35;;
23260;SDS011;11799;47.740;-3.390;2023-03-01T15:37:32;21.77;;;12.93;;
23260;SDS011;11799;47.740;-3.390;2023-03-01T15:40:24;20.25;;;13.75;;
23260;SDS011;11799;47.740;-3.390;2023-03-01T15:42:59;21.25;;;14.10;;
23260;SDS011;11799;47.740;-3.390;2023-03-01T15:45:27;21.77;;;13.60;;
23260;SDS011;11799;47.740;-3.390;2023-03-01T15:47:55;21.58;;;13.32;;
23260;SDS011;11799;47.740;-3.390;2023-03-01T15:53:04;17.42;;;12.77;;
23260;SDS011;11799;47.740;-3.390;2023-03-01T15:55:36;18.65;;;13.20;;
23260;SDS011;11799;47.740;-3.390;2023-03-01T16:00:46;18.40;;;12.40;;
23260;SDS011;11799;47.740;-3.390;2023-03-01T16:03:14;19.55;;;13.80;;
23260;SDS011;11799;47.740;-3.390;2023-03-01T16:05:46;20.27;;;13.48;;
23260;SDS011;11799;47.740;-3.390;2023-03-01T16:08:13;18.15;;;12.68;;
23260;SDS011;11799;47.740;-3.390;2023-03-01T16:10:40;20.98;;;14.70;;
23260;SDS011;11799;47.740;-3.390;2023-03-01T16:13:10;21.10;;;13.65;;
23260;SDS011;11799;47.740;-3.390;2023-03-01T16:15:37;20.13;;;14.07;;
23260;SDS011;11799;47.740;-3.390;2023-03-01T16:18:03;19.70;;;13.80;;
23260;SDS011;11799;47.740;-3.390;2023-03-01T16:20:33;20.33;;;13.13;;
23260;SDS011;11799;47.740;-3.390;2023-03-01T16:23:00;22.25;;;13.75;;
23260;SDS011;11799;47.740;-3.390;2023-03-01T16:25:30;20.08;;;13.05;;
23260;SDS011;11799;47.740;-3.390;2023-03-01T16:27:57;19.95;;;13.80;;
23260;SDS011;11799;47.740;-3.390;2023-03-01T16:30:25;20.63;;;13.38;;
23260;SDS011;11799;47.740;-3.390;2023-03-01T16:32:50;20.08;;;13.50;;
23260;SDS011;11799;47.740;-3.390;2023-03-01T16:35:17;24.25;;;13.77;;
23260;SDS011;11799;47.740;-3.390;2023-03-01T16:37:45;18.80;;;14.10;;
23260;SDS011;11799;47.740;-3.390;2023-03-01T16:40:16;19.63;;;13.90;;
23260;SDS011;11799;47.740;-3.390;2023-03-01T16:42:44;19.52;;;13.63;;
23260;SDS011;11799;47.740;-3.390;2023-03-01T16:45:09;17.90;;;13.27;;
23260;SDS011;11799;47.740;-3.390;2023-03-01T16:47:35;19.05;;;13.18;;